sensor_id;sensor_type;location;lat;lon;timestamp;P1;durP1;ratioP1;P2;durP2;ratioP2
23242;SDS011;11790;49.578;11.214;2024-01-27T00:03:14;9.73;;;3.07;;
23242;SDS011;11790;49.578;11.214;2024-01-27T00:08:14;10.98;;;2.90;;
23242;SDS011;11790;49.578;11.214;2024-01-27T00:13:14;8.95;;;3.30;;
23242;SDS011;11790;49.578;11.214;2024-01-27T00:18:15;11.57;;;2.92;;
23242;SDS011;11790;49.578;11.214;2024-01-27T00:23:16;6.55;;;2.65;;
23242;SDS011;11790;49.578;11.214;2024-01-27T00:28:16;6.30;;;2.88;;
23242;SDS011;11790;49.578;11.214;2024-01-27T00:33:16;8.85;;;3.40;;
23242;SDS011;11790;49.578;11.214;2024-01-27T00:38:16;10.40;;;3.20;;
23242;SDS011;11790;49.578;11.214;2024-01-27T00:43:16;10.43;;;3.30;;
23242;SDS011;11790;49.578;11.214;2024-01-27T00:48:17;12.60;;;3.53;;
23242;SDS011;11790;49.578;11.214;2024-01-27T00:53:17;10.40;;;3.35;;
23242;SDS011;11790;49.578;11.214;2024-01-27T00:58:17;13.38;;;3.47;;
23242;SDS011;11790;49.578;11.214;2024-01-27T01:03:17;17.02;;;4.15;;
23242;SDS011;11790;49.578;11.214;2024-01-27T01:08:17;15.68;;;3.67;;
23242;SDS011;11790;49.578;11.214;2024-01-27T01:13:17;10.20;;;3.75;;
23242;SDS011;11790;49.578;11.214;2024-01-27T01:18:18;8.15;;;3.00;;
23242;SDS011;11790;49.578;11.214;2024-01-27T01:23:18;8.68;;;3.47;;
23242;SDS011;11790;49.578;11.214;2024-01-27T01:28:18;14.82;;;3.70;;
23242;SDS011;11790;49.578;11.214;2024-01-27T01:33:18;7.65;;;3.17;;
23242;SDS011;11790;49.578;11.214;2024-01-27T01:38:18;13.95;;;3.63;;
23242;SDS011;11790;49.578;11.214;2024-01-27T01:43:18;13.35;;;3.47;;
23242;SDS011;11790;49.578;11.214;2024-01-27T01:48:21;8.38;;;3.08;;
23242;SDS011;11790;49.578;11.214;2024-01-27T01:53:22;8.73;;;3.50;;
23242;SDS011;11790;49.578;11.214;2024-01-27T01:58:22;9.52;;;3.22;;
23242;SDS011;11790;49.578;11.214;2024-01-27T02:03:22;10.70;;;3.70;;
23242;SDS011;11790;49.578;11.214;2024-01-27T02:08:23;14.60;;;4.18;;
23242;SDS011;11790;49.578;11.214;2024-01-27T02:13:23;12.73;;;4.20;;
23242;SDS011;11790;49.578;11.214;2024-01-27T02:18:23;12.77;;;3.45;;
23242;SDS011;11790;49.578;11.214;2024-01-27T02:23:23;12.82;;;4.05;;
23242;SDS011;11790;49.578;11.214;2024-01-27T02:28:23;13.68;;;4.18;;
23242;SDS011;11790;49.578;11.214;2024-01-27T02:33:24;13.07;;;4.05;;
23242;SDS011;11790;49.578;11.214;2024-01-27T02:38:24;11.63;;;3.75;;
23242;SDS011;11790;49.578;11.214;2024-01-27T02:43:24;9.75;;;3.88;;
23242;SDS011;11790;49.578;11.214;2024-01-27T02:48:24;16.73;;;3.78;;
23242;SDS011;11790;49.578;11.214;2024-01-27T02:53:24;14.68;;;4.32;;
23242;SDS011;11790;49.578;11.214;2024-01-27T02:58:24;16.70;;;4.28;;
23242;SDS011;11790;49.578;11.214;2024-01-27T03:03:25;16.77;;;4.82;;
23242;SDS011;11790;49.578;11.214;2024-01-27T03:08:26;11.20;;;3.65;;
23242;SDS011;11790;49.578;11.214;2024-01-27T03:13:26;11.77;;;4.20;;
23242;SDS011;11790;49.578;11.214;2024-01-27T03:18:26;19.75;;;4.57;;
23242;SDS011;11790;49.578;11.214;2024-01-27T03:23:26;13.63;;;4.22;;
23242;SDS011;11790;49.578;11.214;2024-01-27T03:28:27;11.45;;;4.40;;
23242;SDS011;11790;49.578;11.214;2024-01-27T03:33:27;10.27;;;4.90;;
23242;SDS011;11790;49.578;11.214;2024-01-27T03:38:29;14.10;;;4.25;;
23242;SDS011;11790;49.578;11.214;2024-01-27T03:43:29;14.27;;;4.57;;
23242;SDS011;11790;49.578;11.214;2024-01-27T03:48:31;11.65;;;4.53;;
23242;SDS011;11790;49.578;11.214;2024-01-27T03:53:31;12.85;;;4.38;;
23242;SDS011;11790;49.578;11.214;2024-01-27T03:58:31;11.70;;;4.57;;
23242;SDS011;11790;49.578;11.214;2024-01-27T04:03:31;11.35;;;4.30;;
23242;SDS011;11790;49.578;11.214;2024-01-27T04:08:31;15.07;;;4.90;;
23242;SDS011;11790;49.578;11.214;2024-01-27T04:13:31;15.07;;;4.72;;
23242;SDS011;11790;49.578;11.214;2024-01-27T04:18:32;14.75;;;4.65;;
23242;SDS011;11790;49.578;11.214;2024-01-27T04:23:32;15.50;;;4.70;;
23242;SDS011;11790;49.578;11.214;2024-01-27T04:28:33;11.85;;;4.28;;
23242;SDS011;11790;49.578;11.214;2024-01-27T04:33:33;10.50;;;4.40;;
23242;SDS011;11790;49.578;11.214;2024-01-27T04:38:33;12.23;;;4.57;;
23242;SDS011;11790;49.578;11.214;2024-01-27T04:43:34;14.00;;;4.90;;
23242;SDS011;11790;49.578;11.214;2024-01-27T04:48:34;15.82;;;4.82;;
23242;SDS011;11790;49.578;11.214;2024-01-27T04:53:34;19.38;;;5.40;;
23242;SDS011;11790;49.578;11.214;2024-01-27T04:58:34;18.00;;;5.80;;
23242;SDS011;11790;49.578;11.214;2024-01-27T05:03:34;13.73;;;5.57;;
23242;SDS011;11790;49.578;11.214;2024-01-27T05:08:35;13.90;;;5.00;;
23242;SDS011;11790;49.578;11.214;2024-01-27T05:13:35;20.02;;;5.47;;
23242;SDS011;11790;49.578;11.214;2024-01-27T05:18:37;12.63;;;5.07;;
23242;SDS011;11790;49.578;11.214;2024-01-27T05:23:37;15.52;;;5.30;;
23242;SDS011;11790;49.578;11.214;2024-01-27T05:28:38;19.13;;;5.70;;
23242;SDS011;11790;49.578;11.214;2024-01-27T05:33:39;18.90;;;5.63;;
23242;SDS011;11790;49.578;11.214;2024-01-27T05:38:39;19.95;;;5.63;;
23242;SDS011;11790;49.578;11.214;2024-01-27T05:43:39;11.35;;;5.25;;
23242;SDS011;11790;49.578;11.214;2024-01-27T05:48:40;20.40;;;5.20;;
23242;SDS011;11790;49.578;11.214;2024-01-27T05:53:40;16.70;;;5.75;;
23242;SDS011;11790;49.578;11.214;2024-01-27T05:58:40;21.35;;;6.57;;
23242;SDS011;11790;49.578;11.214;2024-01-27T06:03:41;23.92;;;6.32;;
23242;SDS011;11790;49.578;11.214;2024-01-27T06:08:41;11.73;;;5.22;;
23242;SDS011;11790;49.578;11.214;2024-01-27T06:13:41;15.67;;;5.20;;
23242;SDS011;11790;49.578;11.214;2024-01-27T06:18:43;14.57;;;6.13;;
23242;SDS011;11790;49.578;11.214;2024-01-27T06:23:44;18.38;;;5.90;;
23242;SDS011;11790;49.578;11.214;2024-01-27T06:28:45;16.38;;;6.07;;
23242;SDS011;11790;49.578;11.214;2024-01-27T06:33:45;28.23;;;7.13;;
23242;SDS011;11790;49.578;11.214;2024-01-27T06:38:45;19.63;;;6.80;;
23242;SDS011;11790;49.578;11.214;2024-01-27T06:43:46;16.70;;;7.28;;
23242;SDS011;11790;49.578;11.214;2024-01-27T06:48:46;18.13;;;6.72;;
23242;SDS011;11790;49.578;11.214;2024-01-27T06:53:46;22.58;;;7.45;;
23242;SDS011;11790;49.578;11.214;2024-01-27T06:58:48;19.77;;;7.07;;
23242;SDS011;11790;49.578;11.214;2024-01-27T07:03:48;18.05;;;8.20;;
23242;SDS011;11790;49.578;11.214;2024-01-27T07:08:48;22.13;;;8.40;;
23242;SDS011;11790;49.578;11.214;2024-01-27T07:13:48;23.65;;;8.35;;
23242;SDS011;11790;49.578;11.214;2024-01-27T07:18:49;25.63;;;7.55;;
23242;SDS011;11790;49.578;11.214;2024-01-27T07:23:49;20.95;;;7.82;;
23242;SDS011;11790;49.578;11.214;2024-01-27T07:28:49;22.57;;;7.83;;
23242;SDS011;11790;49.578;11.214;2024-01-27T07:33:49;20.50;;;8.20;;
23242;SDS011;11790;49.578;11.214;2024-01-27T07:38:50;23.37;;;7.83;;
23242;SDS011;11790;49.578;11.214;2024-01-27T07:43:50;19.90;;;6.75;;
23242;SDS011;11790;49.578;11.214;2024-01-27T07:48:51;17.00;;;7.15;;
23242;SDS011;11790;49.578;11.214;2024-01-27T07:53:52;19.95;;;7.30;;
23242;SDS011;11790;49.578;11.214;2024-01-27T07:58:52;11.90;;;5.75;;
23242;SDS011;11790;49.578;11.214;2024-01-27T08:03:53;13.65;;;5.18;;
23242;SDS011;11790;49.578;11.214;2024-01-27T08:08:53;13.25;;;4.93;;
23242;SDS011;11790;49.578;11.214;2024-01-27T08:13:54;14.60;;;5.45;;
23242;SDS011;11790;49.578;11.214;2024-01-27T08:18:54;14.88;;;5.90;;
23242;SDS011;11790;49.578;11.214;2024-01-27T08:23:54;17.23;;;8.73;;
23242;SDS011;11790;49.578;11.214;2024-01-27T08:28:57;20.65;;;10.32;;
23242;SDS011;11790;49.578;11.214;2024-01-27T08:33:58;27.23;;;11.63;;
23242;SDS011;11790;49.578;11.214;2024-01-27T08:38:58;17.70;;;8.05;;
23242;SDS011;11790;49.578;11.214;2024-01-27T08:43:59;18.30;;;10.13;;
23242;SDS011;11790;49.578;11.214;2024-01-27T08:48:59;13.35;;;6.68;;
23242;SDS011;11790;49.578;11.214;2024-01-27T08:53:59;19.35;;;8.68;;
23242;SDS011;11790;49.578;11.214;2024-01-27T08:58:59;16.73;;;6.22;;
23242;SDS011;11790;49.578;11.214;2024-01-27T09:03:59;15.05;;;5.45;;
23242;SDS011;11790;49.578;11.214;2024-01-27T09:09:00;13.43;;;4.97;;
23242;SDS011;11790;49.578;11.214;2024-01-27T09:14:01;12.95;;;5.93;;
23242;SDS011;11790;49.578;11.214;2024-01-27T09:19:01;11.80;;;4.35;;
23242;SDS011;11790;49.578;11.214;2024-01-27T09:24:02;9.82;;;4.00;;
23242;SDS011;11790;49.578;11.214;2024-01-27T09:29:02;14.77;;;4.73;;
23242;SDS011;11790;49.578;11.214;2024-01-27T09:34:02;9.70;;;4.15;;
23242;SDS011;11790;49.578;11.214;2024-01-27T09:39:02;14.97;;;5.20;;
23242;SDS011;11790;49.578;11.214;2024-01-27T09:44:03;11.57;;;4.90;;
23242;SDS011;11790;49.578;11.214;2024-01-27T09:49:04;12.70;;;4.60;;
23242;SDS011;11790;49.578;11.214;2024-01-27T09:54:05;11.55;;;4.97;;
23242;SDS011;11790;49.578;11.214;2024-01-27T09:59:05;12.93;;;5.60;;
23242;SDS011;11790;49.578;11.214;2024-01-27T10:04:07;14.32;;;5.68;;
23242;SDS011;11790;49.578;11.214;2024-01-27T10:09:08;11.23;;;5.30;;
23242;SDS011;11790;49.578;11.214;2024-01-27T10:14:09;15.77;;;4.80;;
23242;SDS011;11790;49.578;11.214;2024-01-27T10:19:14;17.05;;;5.82;;
23242;SDS011;11790;49.578;11.214;2024-01-27T10:24:16;19.95;;;5.20;;
23242;SDS011;11790;49.578;11.214;2024-01-27T10:29:16;16.10;;;6.43;;
23242;SDS011;11790;49.578;11.214;2024-01-27T10:34:19;11.32;;;3.97;;
23242;SDS011;11790;49.578;11.214;2024-01-27T10:39:20;8.73;;;3.45;;
23242;SDS011;11790;49.578;11.214;2024-01-27T10:44:20;12.30;;;3.30;;
23242;SDS011;11790;49.578;11.214;2024-01-27T10:49:21;12.23;;;3.33;;
23242;SDS011;11790;49.578;11.214;2024-01-27T10:54:25;11.65;;;2.97;;
23242;SDS011;11790;49.578;11.214;2024-01-27T10:59:26;18.33;;;2.85;;
23242;SDS011;11790;49.578;11.214;2024-01-27T11:04:28;13.23;;;2.70;;
23242;SDS011;11790;49.578;11.214;2024-01-27T11:09:28;14.52;;;2.58;;
23242;SDS011;11790;49.578;11.214;2024-01-27T11:14:29;14.18;;;3.00;;
23242;SDS011;11790;49.578;11.214;2024-01-27T11:19:29;21.48;;;2.97;;
23242;SDS011;11790;49.578;11.214;2024-01-27T11:24:29;10.30;;;2.72;;
23242;SDS011;11790;49.578;11.214;2024-01-27T11:29:30;14.35;;;2.67;;
23242;SDS011;11790;49.578;11.214;2024-01-27T11:34:44;9.77;;;2.10;;
23242;SDS011;11790;49.578;11.214;2024-01-27T11:39:45;14.68;;;2.30;;
23242;SDS011;11790;49.578;11.214;2024-01-27T11:44:45;14.38;;;2.20;;
23242;SDS011;11790;49.578;11.214;2024-01-27T11:49:52;11.63;;;2.28;;
23242;SDS011;11790;49.578;11.214;2024-01-27T11:54:56;11.38;;;1.98;;
23242;SDS011;11790;49.578;11.214;2024-01-27T11:59:57;11.88;;;2.30;;
23242;SDS011;11790;49.578;11.214;2024-01-27T12:04:57;12.23;;;2.58;;
23242;SDS011;11790;49.578;11.214;2024-01-27T12:09:58;9.48;;;2.20;;
23242;SDS011;11790;49.578;11.214;2024-01-27T12:14:59;13.55;;;2.33;;
23242;SDS011;11790;49.578;11.214;2024-01-27T12:20:00;13.85;;;3.22;;
23242;SDS011;11790;49.578;11.214;2024-01-27T12:25:10;9.52;;;1.80;;
23242;SDS011;11790;49.578;11.214;2024-01-27T12:30:10;9.90;;;2.03;;
23242;SDS011;11790;49.578;11.214;2024-01-27T12:35:11;10.15;;;1.95;;
23242;SDS011;11790;49.578;11.214;2024-01-27T12:40:19;8.55;;;1.73;;
23242;SDS011;11790;49.578;11.214;2024-01-27T12:45:19;10.05;;;2.30;;
23242;SDS011;11790;49.578;11.214;2024-01-27T12:50:19;7.93;;;1.90;;
23242;SDS011;11790;49.578;11.214;2024-01-27T12:55:19;9.55;;;1.77;;
23242;SDS011;11790;49.578;11.214;2024-01-27T13:00:20;6.13;;;1.98;;
23242;SDS011;11790;49.578;11.214;2024-01-27T13:05:21;9.90;;;2.13;;
23242;SDS011;11790;49.578;11.214;2024-01-27T13:10:21;15.15;;;2.28;;
23242;SDS011;11790;49.578;11.214;2024-01-27T13:15:22;10.80;;;1.65;;
23242;SDS011;11790;49.578;11.214;2024-01-27T13:20:25;16.13;;;2.33;;
23242;SDS011;11790;49.578;11.214;2024-01-27T13:25:25;9.70;;;2.28;;
23242;SDS011;11790;49.578;11.214;2024-01-27T13:30:25;9.13;;;2.10;;
23242;SDS011;11790;49.578;11.214;2024-01-27T13:35:27;10.18;;;2.05;;
23242;SDS011;11790;49.578;11.214;2024-01-27T13:40:27;9.33;;;1.83;;
23242;SDS011;11790;49.578;11.214;2024-01-27T13:45:27;10.35;;;2.03;;
23242;SDS011;11790;49.578;11.214;2024-01-27T13:50:27;8.25;;;2.67;;
23242;SDS011;11790;49.578;11.214;2024-01-27T13:55:31;8.25;;;1.98;;
23242;SDS011;11790;49.578;11.214;2024-01-27T14:00:31;8.05;;;2.28;;
23242;SDS011;11790;49.578;11.214;2024-01-27T14:05:33;9.18;;;2.63;;
23242;SDS011;11790;49.578;11.214;2024-01-27T14:10:33;9.27;;;1.83;;
23242;SDS011;11790;49.578;11.214;2024-01-27T14:15:35;12.52;;;1.98;;
23242;SDS011;11790;49.578;11.214;2024-01-27T14:20:36;9.40;;;2.72;;
23242;SDS011;11790;49.578;11.214;2024-01-27T14:25:37;12.25;;;3.50;;
23242;SDS011;11790;49.578;11.214;2024-01-27T14:30:38;12.17;;;2.30;;
23242;SDS011;11790;49.578;11.214;2024-01-27T14:35:39;11.38;;;2.50;;
23242;SDS011;11790;49.578;11.214;2024-01-27T14:40:40;10.82;;;3.17;;
23242;SDS011;11790;49.578;11.214;2024-01-27T14:45:40;16.95;;;4.40;;
23242;SDS011;11790;49.578;11.214;2024-01-27T14:50:40;12.35;;;2.60;;
23242;SDS011;11790;49.578;11.214;2024-01-27T14:55:40;13.60;;;2.00;;
23242;SDS011;11790;49.578;11.214;2024-01-27T15:00:40;10.80;;;2.22;;
23242;SDS011;11790;49.578;11.214;2024-01-27T15:05:41;8.15;;;2.42;;
23242;SDS011;11790;49.578;11.214;2024-01-27T15:10:41;15.02;;;3.00;;
23242;SDS011;11790;49.578;11.214;2024-01-27T15:15:43;11.50;;;2.58;;
23242;SDS011;11790;49.578;11.214;2024-01-27T15:20:43;11.47;;;2.37;;
23242;SDS011;11790;49.578;11.214;2024-01-27T15:25:43;13.32;;;2.80;;
23242;SDS011;11790;49.578;11.214;2024-01-27T15:30:45;9.70;;;2.17;;
23242;SDS011;11790;49.578;11.214;2024-01-27T15:35:47;17.17;;;3.15;;
23242;SDS011;11790;49.578;11.214;2024-01-27T15:40:47;8.88;;;2.40;;
23242;SDS011;11790;49.578;11.214;2024-01-27T15:45:48;8.60;;;2.58;;
23242;SDS011;11790;49.578;11.214;2024-01-27T15:50:48;23.92;;;6.78;;
23242;SDS011;11790;49.578;11.214;2024-01-27T15:55:48;19.10;;;4.75;;
23242;SDS011;11790;49.578;11.214;2024-01-27T16:00:49;12.20;;;3.65;;
23242;SDS011;11790;49.578;11.214;2024-01-27T16:05:49;16.67;;;4.15;;
23242;SDS011;11790;49.578;11.214;2024-01-27T16:10:50;19.43;;;4.57;;
23242;SDS011;11790;49.578;11.214;2024-01-27T16:15:52;15.00;;;5.03;;
23242;SDS011;11790;49.578;11.214;2024-01-27T16:20:52;15.27;;;4.22;;
23242;SDS011;11790;49.578;11.214;2024-01-27T16:25:53;16.80;;;4.88;;
23242;SDS011;11790;49.578;11.214;2024-01-27T16:30:53;18.00;;;5.22;;
23242;SDS011;11790;49.578;11.214;2024-01-27T16:35:54;13.05;;;5.70;;
23242;SDS011;11790;49.578;11.214;2024-01-27T16:40:54;26.23;;;8.77;;
23242;SDS011;11790;49.578;11.214;2024-01-27T16:45:54;32.75;;;12.75;;
23242;SDS011;11790;49.578;11.214;2024-01-27T16:50:55;27.10;;;12.20;;
23242;SDS011;11790;49.578;11.214;2024-01-27T16:55:56;22.67;;;10.65;;
23242;SDS011;11790;49.578;11.214;2024-01-27T17:00:57;33.30;;;14.25;;
23242;SDS011;11790;49.578;11.214;2024-01-27T17:05:57;26.80;;;11.07;;
23242;SDS011;11790;49.578;11.214;2024-01-27T17:10:59;27.95;;;11.77;;
23242;SDS011;11790;49.578;11.214;2024-01-27T17:15:59;22.00;;;8.57;;
23242;SDS011;11790;49.578;11.214;2024-01-27T17:21:00;25.67;;;8.75;;
23242;SDS011;11790;49.578;11.214;2024-01-27T17:26:02;21.75;;;8.50;;
23242;SDS011;11790;49.578;11.214;2024-01-27T17:31:02;19.83;;;9.40;;
23242;SDS011;11790;49.578;11.214;2024-01-27T17:36:03;45.60;;;18.70;;
23242;SDS011;11790;49.578;11.214;2024-01-27T17:41:04;55.13;;;23.13;;
23242;SDS011;11790;49.578;11.214;2024-01-27T17:46:04;67.35;;;29.00;;
23242;SDS011;11790;49.578;11.214;2024-01-27T17:51:07;33.85;;;14.55;;
23242;SDS011;11790;49.578;11.214;2024-01-27T17:56:08;26.48;;;11.15;;
23242;SDS011;11790;49.578;11.214;2024-01-27T18:01:08;35.58;;;15.45;;
23242;SDS011;11790;49.578;11.214;2024-01-27T18:06:08;39.33;;;18.65;;
23242;SDS011;11790;49.578;11.214;2024-01-27T18:11:08;45.25;;;19.23;;
23242;SDS011;11790;49.578;11.214;2024-01-27T18:16:09;49.70;;;22.17;;
23242;SDS011;11790;49.578;11.214;2024-01-27T18:21:09;45.47;;;18.35;;
23242;SDS011;11790;49.578;11.214;2024-01-27T18:26:09;35.15;;;16.50;;
23242;SDS011;11790;49.578;11.214;2024-01-27T18:31:10;28.58;;;14.15;;
23242;SDS011;11790;49.578;11.214;2024-01-27T18:36:10;31.35;;;12.07;;
23242;SDS011;11790;49.578;11.214;2024-01-27T18:41:11;27.55;;;12.18;;
23242;SDS011;11790;49.578;11.214;2024-01-27T18:46:12;40.10;;;13.38;;
23242;SDS011;11790;49.578;11.214;2024-01-27T18:51:12;28.63;;;11.00;;
23242;SDS011;11790;49.578;11.214;2024-01-27T18:56:13;29.50;;;11.48;;
23242;SDS011;11790;49.578;11.214;2024-01-27T19:01:14;31.30;;;13.70;;
23242;SDS011;11790;49.578;11.214;2024-01-27T19:06:14;32.00;;;13.77;;
23242;SDS011;11790;49.578;11.214;2024-01-27T19:11:14;37.63;;;13.75;;
23242;SDS011;11790;49.578;11.214;2024-01-27T19:16:14;40.38;;;17.48;;
23242;SDS011;11790;49.578;11.214;2024-01-27T19:21:15;34.97;;;15.55;;
23242;SDS011;11790;49.578;11.214;2024-01-27T19:26:15;37.42;;;16.50;;
23242;SDS011;11790;49.578;11.214;2024-01-27T19:31:16;36.13;;;16.88;;
23242;SDS011;11790;49.578;11.214;2024-01-27T19:36:17;41.45;;;17.73;;
23242;SDS011;11790;49.578;11.214;2024-01-27T19:41:17;39.13;;;15.77;;
23242;SDS011;11790;49.578;11.214;2024-01-27T19:46:19;35.55;;;16.00;;
23242;SDS011;11790;49.578;11.214;2024-01-27T19:51:19;28.10;;;13.05;;
23242;SDS011;11790;49.578;11.214;2024-01-27T19:56:20;36.63;;;15.30;;
23242;SDS011;11790;49.578;11.214;2024-01-27T20:01:20;31.77;;;13.35;;
23242;SDS011;11790;49.578;11.214;2024-01-27T20:06:20;40.70;;;18.52;;
23242;SDS011;11790;49.578;11.214;2024-01-27T20:11:21;47.13;;;19.55;;
23242;SDS011;11790;49.578;11.214;2024-01-27T20:16:21;42.05;;;18.30;;
23242;SDS011;11790;49.578;11.214;2024-01-27T20:21:21;46.25;;;20.15;;
23242;SDS011;11790;49.578;11.214;2024-01-27T20:26:22;42.55;;;20.25;;
23242;SDS011;11790;49.578;11.214;2024-01-27T20:31:22;51.58;;;25.63;;
23242;SDS011;11790;49.578;11.214;2024-01-27T20:36:22;42.53;;;20.33;;
23242;SDS011;11790;49.578;11.214;2024-01-27T20:41:22;28.73;;;11.68;;
23242;SDS011;11790;49.578;11.214;2024-01-27T20:46:23;38.47;;;18.53;;
23242;SDS011;11790;49.578;11.214;2024-01-27T20:51:23;30.38;;;13.07;;
23242;SDS011;11790;49.578;11.214;2024-01-27T20:56:23;31.35;;;12.63;;
23242;SDS011;11790;49.578;11.214;2024-01-27T21:01:24;46.05;;;17.75;;
23242;SDS011;11790;49.578;11.214;2024-01-27T21:06:24;40.88;;;15.23;;
23242;SDS011;11790;49.578;11.214;2024-01-27T21:11:24;26.40;;;12.82;;
23242;SDS011;11790;49.578;11.214;2024-01-27T21:16:25;43.17;;;17.58;;
23242;SDS011;11790;49.578;11.214;2024-01-27T21:21:25;43.53;;;18.23;;
23242;SDS011;11790;49.578;11.214;2024-01-27T21:26:25;35.85;;;16.98;;
23242;SDS011;11790;49.578;11.214;2024-01-27T21:31:26;50.30;;;22.42;;
23242;SDS011;11790;49.578;11.214;2024-01-27T21:36:26;36.75;;;16.98;;
23242;SDS011;11790;49.578;11.214;2024-01-27T21:41:26;31.00;;;14.75;;
23242;SDS011;11790;49.578;11.214;2024-01-27T21:46:27;46.28;;;18.52;;
23242;SDS011;11790;49.578;11.214;2024-01-27T21:51:27;53.35;;;24.23;;
23242;SDS011;11790;49.578;11.214;2024-01-27T21:56:27;51.20;;;23.33;;
23242;SDS011;11790;49.578;11.214;2024-01-27T22:01:27;31.17;;;11.20;;
23242;SDS011;11790;49.578;11.214;2024-01-27T22:06:29;40.70;;;13.35;;
23242;SDS011;11790;49.578;11.214;2024-01-27T22:11:29;41.03;;;16.98;;
23242;SDS011;11790;49.578;11.214;2024-01-27T22:16:30;51.20;;;25.27;;
23242;SDS011;11790;49.578;11.214;2024-01-27T22:21:30;59.42;;;25.90;;
23242;SDS011;11790;49.578;11.214;2024-01-27T22:26:30;61.83;;;25.65;;
23242;SDS011;11790;49.578;11.214;2024-01-27T22:31:30;50.22;;;23.50;;
23242;SDS011;11790;49.578;11.214;2024-01-27T22:36:31;50.63;;;20.70;;
23242;SDS011;11790;49.578;11.214;2024-01-27T22:41:31;54.45;;;22.13;;
23242;SDS011;11790;49.578;11.214;2024-01-27T22:46:31;52.80;;;22.65;;
23242;SDS011;11790;49.578;11.214;2024-01-27T22:51:31;50.33;;;21.95;;
23242;SDS011;11790;49.578;11.214;2024-01-27T22:56:32;51.10;;;20.27;;
23242;SDS011;11790;49.578;11.214;2024-01-27T23:01:32;44.03;;;19.52;;
23242;SDS011;11790;49.578;11.214;2024-01-27T23:06:32;45.80;;;17.67;;
23242;SDS011;11790;49.578;11.214;2024-01-27T23:11:33;37.05;;;16.05;;
23242;SDS011;11790;49.578;11.214;2024-01-27T23:16:35;34.72;;;13.95;;
23242;SDS011;11790;49.578;11.214;2024-01-27T23:21:35;36.13;;;13.97;;
23242;SDS011;11790;49.578;11.214;2024-01-27T23:26:36;32.17;;;13.50;;
23242;SDS011;11790;49.578;11.214;2024-01-27T23:31:36;40.08;;;18.48;;
23242;SDS011;11790;49.578;11.214;2024-01-27T23:36:37;34.95;;;16.50;;
23242;SDS011;11790;49.578;11.214;2024-01-27T23:41:37;37.65;;;15.10;;
23242;SDS011;11790;49.578;11.214;2024-01-27T23:46:38;35.08;;;15.02;;
23242;SDS011;11790;49.578;11.214;2024-01-27T23:51:38;38.58;;;16.20;;
23242;SDS011;11790;49.578;11.214;2024-01-27T23:56:40;40.90;;;17.38;;
